sensor_id;sensor_type;location;lat;lon;timestamp;P1;durP1;ratioP1;P2;durP2;ratioP2
54947;SDS011;41113;41.882;12.530;2023-07-08T00:00:23;15.35;;;7.53;;
54947;SDS011;41113;41.882;12.530;2023-07-08T00:02:49;14.55;;;7.32;;
54947;SDS011;41113;41.882;12.530;2023-07-08T00:07:44;13.65;;;6.70;;
54947;SDS011;41113;41.882;12.530;2023-07-08T00:10:24;14.57;;;6.22;;
54947;SDS011;41113;41.882;12.530;2023-07-08T00:12:51;12.77;;;6.47;;
54947;SDS011;41113;41.882;12.530;2023-07-08T00:15:22;12.02;;;6.35;;
54947;SDS011;41113;41.882;12.530;2023-07-08T00:17:50;12.35;;;6.75;;
54947;SDS011;41113;41.882;12.530;2023-07-08T00:22:47;16.25;;;8.20;;
54947;SDS011;41113;41.882;12.530;2023-07-08T00:25:15;17.88;;;8.90;;
54947;SDS011;41113;41.882;12.530;2023-07-08T00:27:41;17.42;;;8.60;;
54947;SDS011;41113;41.882;12.530;2023-07-08T00:30:16;16.23;;;7.80;;
54947;SDS011;41113;41.882;12.530;2023-07-08T00:32:45;15.93;;;7.82;;
54947;SDS011;41113;41.882;12.530;2023-07-08T00:35:10;13.15;;;7.40;;
54947;SDS011;41113;41.882;12.530;2023-07-08T00:37:36;14.70;;;8.18;;
54947;SDS011;41113;41.882;12.530;2023-07-08T00:40:01;15.05;;;7.28;;
54947;SDS011;41113;41.882;12.530;2023-07-08T00:42:38;14.20;;;7.32;;
54947;SDS011;41113;41.882;12.530;2023-07-08T00:45:10;15.55;;;7.90;;
54947;SDS011;41113;41.882;12.530;2023-07-08T00:48:00;18.52;;;8.43;;
54947;SDS011;41113;41.882;12.530;2023-07-08T00:50:33;19.50;;;7.97;;
54947;SDS011;41113;41.882;12.530;2023-07-08T00:55:43;15.80;;;7.70;;
54947;SDS011;41113;41.882;12.530;2023-07-08T00:58:08;16.92;;;8.23;;
54947;SDS011;41113;41.882;12.530;2023-07-08T01:00:33;15.60;;;8.38;;
54947;SDS011;41113;41.882;12.530;2023-07-08T01:02:59;16.30;;;7.55;;
54947;SDS011;41113;41.882;12.530;2023-07-08T01:05:25;15.82;;;8.13;;
54947;SDS011;41113;41.882;12.530;2023-07-08T01:07:56;15.77;;;7.88;;
54947;SDS011;41113;41.882;12.530;2023-07-08T01:10:28;14.25;;;6.82;;
54947;SDS011;41113;41.882;12.530;2023-07-08T01:13:17;14.90;;;7.35;;
54947;SDS011;41113;41.882;12.530;2023-07-08T01:15:46;13.93;;;7.38;;
54947;SDS011;41113;41.882;12.530;2023-07-08T01:18:15;13.00;;;7.47;;
54947;SDS011;41113;41.882;12.530;2023-07-08T01:20:42;18.03;;;7.40;;
54947;SDS011;41113;41.882;12.530;2023-07-08T01:23:09;14.05;;;7.18;;
54947;SDS011;41113;41.882;12.530;2023-07-08T01:25:36;14.80;;;7.18;;
54947;SDS011;41113;41.882;12.530;2023-07-08T01:28:02;13.52;;;6.60;;
54947;SDS011;41113;41.882;12.530;2023-07-08T01:30:28;13.75;;;6.93;;
54947;SDS011;41113;41.882;12.530;2023-07-08T01:32:57;12.63;;;6.93;;
54947;SDS011;41113;41.882;12.530;2023-07-08T01:35:27;12.10;;;6.15;;
54947;SDS011;41113;41.882;12.530;2023-07-08T01:37:54;12.68;;;6.30;;
54947;SDS011;41113;41.882;12.530;2023-07-08T01:40:24;14.30;;;7.22;;
54947;SDS011;41113;41.882;12.530;2023-07-08T01:42:50;13.77;;;6.80;;
54947;SDS011;41113;41.882;12.530;2023-07-08T01:45:17;15.95;;;7.30;;
54947;SDS011;41113;41.882;12.530;2023-07-08T01:47:48;13.55;;;7.28;;
54947;SDS011;41113;41.882;12.530;2023-07-08T01:50:18;13.10;;;6.50;;
54947;SDS011;41113;41.882;12.530;2023-07-08T01:52:46;13.30;;;7.00;;
54947;SDS011;41113;41.882;12.530;2023-07-08T01:55:13;14.85;;;7.03;;
54947;SDS011;41113;41.882;12.530;2023-07-08T01:57:38;16.10;;;7.05;;
54947;SDS011;41113;41.882;12.530;2023-07-08T02:00:05;13.30;;;7.22;;
54947;SDS011;41113;41.882;12.530;2023-07-08T02:02:31;14.07;;;7.93;;
54947;SDS011;41113;41.882;12.530;2023-07-08T02:04:56;15.63;;;7.38;;
54947;SDS011;41113;41.882;12.530;2023-07-08T02:07:21;22.00;;;7.78;;
54947;SDS011;41113;41.882;12.530;2023-07-08T02:09:47;13.30;;;7.10;;
54947;SDS011;41113;41.882;12.530;2023-07-08T02:12:12;15.88;;;6.57;;
54947;SDS011;41113;41.882;12.530;2023-07-08T02:14:37;14.30;;;7.22;;
54947;SDS011;41113;41.882;12.530;2023-07-08T02:17:03;14.25;;;7.13;;
54947;SDS011;41113;41.882;12.530;2023-07-08T02:19:30;18.20;;;7.78;;
54947;SDS011;41113;41.882;12.530;2023-07-08T02:21:56;15.07;;;6.90;;
54947;SDS011;41113;41.882;12.530;2023-07-08T02:24:22;13.48;;;7.32;;
54947;SDS011;41113;41.882;12.530;2023-07-08T02:26:48;15.57;;;7.20;;
54947;SDS011;41113;41.882;12.530;2023-07-08T02:29:14;16.33;;;7.70;;
54947;SDS011;41113;41.882;12.530;2023-07-08T02:31:39;15.07;;;7.80;;
54947;SDS011;41113;41.882;12.530;2023-07-08T02:34:04;16.25;;;7.38;;
54947;SDS011;41113;41.882;12.530;2023-07-08T02:36:30;16.58;;;7.22;;
54947;SDS011;41113;41.882;12.530;2023-07-08T02:38:55;16.38;;;7.85;;
54947;SDS011;41113;41.882;12.530;2023-07-08T02:41:21;13.25;;;7.03;;
54947;SDS011;41113;41.882;12.530;2023-07-08T02:43:46;14.50;;;7.85;;
54947;SDS011;41113;41.882;12.530;2023-07-08T02:46:11;13.60;;;7.03;;
54947;SDS011;41113;41.882;12.530;2023-07-08T02:48:37;16.90;;;7.75;;
54947;SDS011;41113;41.882;12.530;2023-07-08T02:51:03;16.42;;;8.05;;
54947;SDS011;41113;41.882;12.530;2023-07-08T02:53:30;16.30;;;7.43;;
54947;SDS011;41113;41.882;12.530;2023-07-08T02:55:55;14.40;;;7.15;;
54947;SDS011;41113;41.882;12.530;2023-07-08T02:58:21;13.35;;;7.28;;
54947;SDS011;41113;41.882;12.530;2023-07-08T03:00:55;14.38;;;6.78;;
54947;SDS011;41113;41.882;12.530;2023-07-08T03:03:24;13.63;;;7.57;;
54947;SDS011;41113;41.882;12.530;2023-07-08T03:05:56;15.77;;;7.90;;
54947;SDS011;41113;41.882;12.530;2023-07-08T03:08:23;13.75;;;6.65;;
54947;SDS011;41113;41.882;12.530;2023-07-08T03:10:53;11.98;;;6.82;;
54947;SDS011;41113;41.882;12.530;2023-07-08T03:13:23;14.02;;;7.35;;
54947;SDS011;41113;41.882;12.530;2023-07-08T03:15:49;15.02;;;7.25;;
54947;SDS011;41113;41.882;12.530;2023-07-08T03:18:15;15.13;;;8.13;;
54947;SDS011;41113;41.882;12.530;2023-07-08T03:20:40;16.00;;;7.35;;
54947;SDS011;41113;41.882;12.530;2023-07-08T03:23:06;15.52;;;7.35;;
54947;SDS011;41113;41.882;12.530;2023-07-08T03:25:31;16.10;;;7.90;;
54947;SDS011;41113;41.882;12.530;2023-07-08T03:27:57;15.57;;;8.02;;
54947;SDS011;41113;41.882;12.530;2023-07-08T03:30:22;16.58;;;7.47;;
54947;SDS011;41113;41.882;12.530;2023-07-08T03:32:48;14.43;;;7.72;;
54947;SDS011;41113;41.882;12.530;2023-07-08T03:35:14;16.52;;;7.57;;
54947;SDS011;41113;41.882;12.530;2023-07-08T03:37:41;16.63;;;7.40;;
54947;SDS011;41113;41.882;12.530;2023-07-08T03:40:08;15.98;;;7.22;;
54947;SDS011;41113;41.882;12.530;2023-07-08T03:42:35;13.63;;;6.95;;
54947;SDS011;41113;41.882;12.530;2023-07-08T03:45:00;15.15;;;7.57;;
54947;SDS011;41113;41.882;12.530;2023-07-08T03:47:25;14.13;;;7.68;;
54947;SDS011;41113;41.882;12.530;2023-07-08T03:49:51;16.50;;;7.07;;
54947;SDS011;41113;41.882;12.530;2023-07-08T03:52:16;14.65;;;7.75;;
54947;SDS011;41113;41.882;12.530;2023-07-08T03:54:42;14.60;;;7.50;;
54947;SDS011;41113;41.882;12.530;2023-07-08T03:57:07;14.32;;;6.88;;
54947;SDS011;41113;41.882;12.530;2023-07-08T03:59:33;14.35;;;7.40;;
54947;SDS011;41113;41.882;12.530;2023-07-08T04:01:58;13.15;;;7.05;;
54947;SDS011;41113;41.882;12.530;2023-07-08T04:04:24;16.70;;;7.70;;
54947;SDS011;41113;41.882;12.530;2023-07-08T04:06:49;15.73;;;7.45;;
54947;SDS011;41113;41.882;12.530;2023-07-08T04:09:15;16.30;;;7.47;;
54947;SDS011;41113;41.882;12.530;2023-07-08T04:11:41;15.00;;;7.60;;
54947;SDS011;41113;41.882;12.530;2023-07-08T04:14:08;14.60;;;7.00;;
54947;SDS011;41113;41.882;12.530;2023-07-08T04:16:42;12.68;;;6.55;;
54947;SDS011;41113;41.882;12.530;2023-07-08T04:19:16;16.58;;;7.07;;
54947;SDS011;41113;41.882;12.530;2023-07-08T04:21:42;16.42;;;7.63;;
54947;SDS011;41113;41.882;12.530;2023-07-08T04:24:10;14.85;;;7.20;;
54947;SDS011;41113;41.882;12.530;2023-07-08T04:26:36;13.75;;;6.78;;
54947;SDS011;41113;41.882;12.530;2023-07-08T04:29:04;13.88;;;6.78;;
54947;SDS011;41113;41.882;12.530;2023-07-08T04:31:32;15.23;;;6.88;;
54947;SDS011;41113;41.882;12.530;2023-07-08T04:33:57;12.57;;;6.75;;
54947;SDS011;41113;41.882;12.530;2023-07-08T04:36:22;12.38;;;6.55;;
54947;SDS011;41113;41.882;12.530;2023-07-08T04:38:50;12.80;;;6.53;;
54947;SDS011;41113;41.882;12.530;2023-07-08T04:41:15;14.93;;;7.15;;
54947;SDS011;41113;41.882;12.530;2023-07-08T04:43:40;12.75;;;6.72;;
54947;SDS011;41113;41.882;12.530;2023-07-08T04:46:09;13.75;;;6.68;;
54947;SDS011;41113;41.882;12.530;2023-07-08T04:48:44;13.68;;;6.50;;
54947;SDS011;41113;41.882;12.530;2023-07-08T04:51:10;13.63;;;7.13;;
54947;SDS011;41113;41.882;12.530;2023-07-08T04:53:36;14.50;;;6.75;;
54947;SDS011;41113;41.882;12.530;2023-07-08T04:56:01;13.82;;;6.05;;
54947;SDS011;41113;41.882;12.530;2023-07-08T04:58:27;14.35;;;6.75;;
54947;SDS011;41113;41.882;12.530;2023-07-08T05:00:52;14.27;;;6.72;;
54947;SDS011;41113;41.882;12.530;2023-07-08T05:03:17;12.70;;;5.63;;
54947;SDS011;41113;41.882;12.530;2023-07-08T05:05:43;13.20;;;6.00;;
54947;SDS011;41113;41.882;12.530;2023-07-08T05:08:08;16.40;;;6.28;;
54947;SDS011;41113;41.882;12.530;2023-07-08T05:10:34;11.90;;;5.72;;
54947;SDS011;41113;41.882;12.530;2023-07-08T05:12:59;13.13;;;6.55;;
54947;SDS011;41113;41.882;12.530;2023-07-08T05:15:25;12.82;;;5.40;;
54947;SDS011;41113;41.882;12.530;2023-07-08T05:17:51;14.10;;;6.03;;
54947;SDS011;41113;41.882;12.530;2023-07-08T05:20:17;11.40;;;5.80;;
54947;SDS011;41113;41.882;12.530;2023-07-08T05:22:43;13.88;;;5.90;;
54947;SDS011;41113;41.882;12.530;2023-07-08T05:25:10;13.65;;;5.68;;
54947;SDS011;41113;41.882;12.530;2023-07-08T05:27:37;13.40;;;5.35;;
54947;SDS011;41113;41.882;12.530;2023-07-08T05:30:03;11.30;;;5.13;;
54947;SDS011;41113;41.882;12.530;2023-07-08T05:32:30;13.13;;;5.68;;
54947;SDS011;41113;41.882;12.530;2023-07-08T05:34:56;12.15;;;5.07;;
54947;SDS011;41113;41.882;12.530;2023-07-08T05:37:21;10.48;;;4.80;;
54947;SDS011;41113;41.882;12.530;2023-07-08T05:42:15;12.73;;;4.90;;
54947;SDS011;41113;41.882;12.530;2023-07-08T05:44:40;12.23;;;5.13;;
54947;SDS011;41113;41.882;12.530;2023-07-08T05:47:06;12.02;;;5.47;;
54947;SDS011;41113;41.882;12.530;2023-07-08T05:49:31;12.40;;;5.00;;
54947;SDS011;41113;41.882;12.530;2023-07-08T05:51:57;12.18;;;4.78;;
54947;SDS011;41113;41.882;12.530;2023-07-08T05:54:22;12.45;;;5.15;;
54947;SDS011;41113;41.882;12.530;2023-07-08T05:56:47;10.07;;;4.80;;
54947;SDS011;41113;41.882;12.530;2023-07-08T05:59:13;10.75;;;4.63;;
54947;SDS011;41113;41.882;12.530;2023-07-08T06:01:38;11.02;;;5.03;;
54947;SDS011;41113;41.882;12.530;2023-07-08T06:04:03;11.43;;;4.95;;
54947;SDS011;41113;41.882;12.530;2023-07-08T06:06:29;12.10;;;4.68;;
54947;SDS011;41113;41.882;12.530;2023-07-08T06:08:54;13.38;;;5.45;;
54947;SDS011;41113;41.882;12.530;2023-07-08T06:11:20;12.20;;;4.85;;
54947;SDS011;41113;41.882;12.530;2023-07-08T06:13:46;12.05;;;4.90;;
54947;SDS011;41113;41.882;12.530;2023-07-08T06:16:12;11.50;;;5.30;;
54947;SDS011;41113;41.882;12.530;2023-07-08T06:18:37;11.55;;;5.63;;
54947;SDS011;41113;41.882;12.530;2023-07-08T06:21:03;13.25;;;5.90;;
54947;SDS011;41113;41.882;12.530;2023-07-08T06:23:29;14.20;;;5.97;;
54947;SDS011;41113;41.882;12.530;2023-07-08T06:25:55;12.40;;;5.25;;
54947;SDS011;41113;41.882;12.530;2023-07-08T06:28:21;10.50;;;5.45;;
54947;SDS011;41113;41.882;12.530;2023-07-08T06:30:47;12.57;;;5.18;;
54947;SDS011;41113;41.882;12.530;2023-07-08T06:33:13;13.55;;;5.25;;
54947;SDS011;41113;41.882;12.530;2023-07-08T06:35:39;13.13;;;5.68;;
54947;SDS011;41113;41.882;12.530;2023-07-08T06:38:05;12.73;;;6.03;;
54947;SDS011;41113;41.882;12.530;2023-07-08T06:40:32;13.15;;;5.97;;
54947;SDS011;41113;41.882;12.530;2023-07-08T06:42:58;14.40;;;6.70;;
54947;SDS011;41113;41.882;12.530;2023-07-08T06:45:23;12.15;;;6.18;;
54947;SDS011;41113;41.882;12.530;2023-07-08T06:47:49;13.50;;;6.38;;
54947;SDS011;41113;41.882;12.530;2023-07-08T06:50:14;11.75;;;6.18;;
54947;SDS011;41113;41.882;12.530;2023-07-08T06:52:39;12.55;;;5.40;;
54947;SDS011;41113;41.882;12.530;2023-07-08T06:55:06;12.82;;;5.70;;
54947;SDS011;41113;41.882;12.530;2023-07-08T06:57:33;13.65;;;5.90;;
54947;SDS011;41113;41.882;12.530;2023-07-08T06:59:59;13.07;;;5.60;;
54947;SDS011;41113;41.882;12.530;2023-07-08T07:02:25;13.80;;;6.50;;
54947;SDS011;41113;41.882;12.530;2023-07-08T07:04:51;11.93;;;5.70;;
54947;SDS011;41113;41.882;12.530;2023-07-08T07:07:16;12.38;;;5.75;;
54947;SDS011;41113;41.882;12.530;2023-07-08T07:09:42;12.95;;;5.93;;
54947;SDS011;41113;41.882;12.530;2023-07-08T07:12:07;10.68;;;5.50;;
54947;SDS011;41113;41.882;12.530;2023-07-08T07:14:33;14.82;;;5.30;;
54947;SDS011;41113;41.882;12.530;2023-07-08T07:16:59;14.07;;;5.78;;
54947;SDS011;41113;41.882;12.530;2023-07-08T07:19:24;16.15;;;6.05;;
54947;SDS011;41113;41.882;12.530;2023-07-08T07:21:50;12.88;;;5.93;;
54947;SDS011;41113;41.882;12.530;2023-07-08T07:24:16;13.93;;;6.10;;
54947;SDS011;41113;41.882;12.530;2023-07-08T07:26:42;11.20;;;5.30;;
54947;SDS011;41113;41.882;12.530;2023-07-08T07:29:07;12.82;;;5.88;;
54947;SDS011;41113;41.882;12.530;2023-07-08T07:31:32;13.77;;;5.65;;
54947;SDS011;41113;41.882;12.530;2023-07-08T07:33:58;11.98;;;6.18;;
54947;SDS011;41113;41.882;12.530;2023-07-08T07:36:25;11.45;;;6.05;;
54947;SDS011;41113;41.882;12.530;2023-07-08T07:38:50;15.77;;;6.10;;
54947;SDS011;41113;41.882;12.530;2023-07-08T07:41:16;14.43;;;6.25;;
54947;SDS011;41113;41.882;12.530;2023-07-08T07:43:41;10.88;;;5.63;;
54947;SDS011;41113;41.882;12.530;2023-07-08T07:46:06;11.98;;;5.80;;
54947;SDS011;41113;41.882;12.530;2023-07-08T07:48:33;12.68;;;5.93;;
54947;SDS011;41113;41.882;12.530;2023-07-08T07:50:58;12.60;;;5.72;;
54947;SDS011;41113;41.882;12.530;2023-07-08T07:53:24;14.32;;;5.75;;
54947;SDS011;41113;41.882;12.530;2023-07-08T07:55:57;11.55;;;5.97;;
54947;SDS011;41113;41.882;12.530;2023-07-08T07:58:24;15.02;;;6.22;;
54947;SDS011;41113;41.882;12.530;2023-07-08T08:00:49;13.60;;;6.65;;
54947;SDS011;41113;41.882;12.530;2023-07-08T08:03:15;14.27;;;6.53;;
54947;SDS011;41113;41.882;12.530;2023-07-08T08:05:41;14.45;;;6.60;;
54947;SDS011;41113;41.882;12.530;2023-07-08T08:08:07;14.23;;;6.00;;
54947;SDS011;41113;41.882;12.530;2023-07-08T08:10:34;16.42;;;6.57;;
54947;SDS011;41113;41.882;12.530;2023-07-08T08:13:00;13.93;;;5.90;;
54947;SDS011;41113;41.882;12.530;2023-07-08T08:15:25;13.38;;;6.90;;
54947;SDS011;41113;41.882;12.530;2023-07-08T08:17:51;13.00;;;5.70;;
54947;SDS011;41113;41.882;12.530;2023-07-08T08:20:18;14.43;;;6.35;;
54947;SDS011;41113;41.882;12.530;2023-07-08T08:22:44;15.85;;;6.68;;
54947;SDS011;41113;41.882;12.530;2023-07-08T08:25:10;15.45;;;6.90;;
54947;SDS011;41113;41.882;12.530;2023-07-08T08:27:35;13.27;;;6.72;;
54947;SDS011;41113;41.882;12.530;2023-07-08T08:30:01;14.02;;;7.13;;
54947;SDS011;41113;41.882;12.530;2023-07-08T08:32:27;12.82;;;6.45;;
54947;SDS011;41113;41.882;12.530;2023-07-08T08:34:52;16.60;;;7.25;;
54947;SDS011;41113;41.882;12.530;2023-07-08T08:37:18;13.82;;;6.63;;
54947;SDS011;41113;41.882;12.530;2023-07-08T08:39:44;15.90;;;7.50;;
54947;SDS011;41113;41.882;12.530;2023-07-08T08:42:32;14.70;;;7.43;;
54947;SDS011;41113;41.882;12.530;2023-07-08T08:44:59;13.32;;;6.68;;
54947;SDS011;41113;41.882;12.530;2023-07-08T08:50:03;14.15;;;6.70;;
54947;SDS011;41113;41.882;12.530;2023-07-08T08:52:37;12.15;;;6.22;;
54947;SDS011;41113;41.882;12.530;2023-07-08T08:55:13;17.00;;;6.95;;
54947;SDS011;41113;41.882;12.530;2023-07-08T09:00:12;13.82;;;7.10;;
54947;SDS011;41113;41.882;12.530;2023-07-08T09:02:53;12.55;;;6.72;;
54947;SDS011;41113;41.882;12.530;2023-07-08T09:05:26;14.65;;;6.95;;
54947;SDS011;41113;41.882;12.530;2023-07-08T09:10:42;12.52;;;6.75;;
54947;SDS011;41113;41.882;12.530;2023-07-08T09:13:12;13.82;;;7.03;;
54947;SDS011;41113;41.882;12.530;2023-07-08T09:15:47;13.98;;;6.22;;
54947;SDS011;41113;41.882;12.530;2023-07-08T09:18:19;11.80;;;6.40;;
54947;SDS011;41113;41.882;12.530;2023-07-08T09:20:51;15.48;;;7.65;;
54947;SDS011;41113;41.882;12.530;2023-07-08T09:23:22;13.40;;;7.18;;
54947;SDS011;41113;41.882;12.530;2023-07-08T09:28:40;14.63;;;7.97;;
54947;SDS011;41113;41.882;12.530;2023-07-08T09:31:08;14.15;;;7.45;;
54947;SDS011;41113;41.882;12.530;2023-07-08T09:33:43;13.65;;;7.25;;
54947;SDS011;41113;41.882;12.530;2023-07-08T09:36:15;15.95;;;7.15;;
54947;SDS011;41113;41.882;12.530;2023-07-08T09:38:43;14.00;;;7.57;;
54947;SDS011;41113;41.882;12.530;2023-07-08T09:41:11;11.70;;;6.82;;
54947;SDS011;41113;41.882;12.530;2023-07-08T09:43:37;15.15;;;7.78;;
54947;SDS011;41113;41.882;12.530;2023-07-08T09:46:03;17.35;;;7.75;;
54947;SDS011;41113;41.882;12.530;2023-07-08T09:48:33;14.43;;;7.32;;
54947;SDS011;41113;41.882;12.530;2023-07-08T09:51:00;16.73;;;7.90;;
54947;SDS011;41113;41.882;12.530;2023-07-08T09:53:26;16.15;;;7.70;;
54947;SDS011;41113;41.882;12.530;2023-07-08T09:55:52;16.42;;;8.10;;
54947;SDS011;41113;41.882;12.530;2023-07-08T09:58:25;16.08;;;8.07;;
54947;SDS011;41113;41.882;12.530;2023-07-08T10:00:55;20.05;;;8.95;;
54947;SDS011;41113;41.882;12.530;2023-07-08T10:03:25;15.93;;;8.25;;
54947;SDS011;41113;41.882;12.530;2023-07-08T10:05:54;16.88;;;7.60;;
54947;SDS011;41113;41.882;12.530;2023-07-08T10:08:28;16.58;;;8.00;;
54947;SDS011;41113;41.882;12.530;2023-07-08T10:13:53;13.30;;;7.30;;
54947;SDS011;41113;41.882;12.530;2023-07-08T10:18:51;16.67;;;7.10;;
54947;SDS011;41113;41.882;12.530;2023-07-08T10:23:54;11.95;;;6.35;;
54947;SDS011;41113;41.882;12.530;2023-07-08T10:26:31;16.23;;;6.72;;
54947;SDS011;41113;41.882;12.530;2023-07-08T10:31:43;16.92;;;7.13;;
54947;SDS011;41113;41.882;12.530;2023-07-08T10:37:15;13.75;;;6.90;;
54947;SDS011;41113;41.882;12.530;2023-07-08T10:42:45;13.60;;;7.00;;
54947;SDS011;41113;41.882;12.530;2023-07-08T10:54:14;14.27;;;7.20;;
54947;SDS011;41113;41.882;12.530;2023-07-08T11:13:11;12.40;;;6.75;;
54947;SDS011;41113;41.882;12.530;2023-07-08T11:15:43;13.63;;;6.70;;
54947;SDS011;41113;41.882;12.530;2023-07-08T11:18:13;15.63;;;7.43;;
54947;SDS011;41113;41.882;12.530;2023-07-08T11:20:50;12.88;;;6.78;;
54947;SDS011;41113;41.882;12.530;2023-07-08T11:23:36;12.15;;;6.75;;
54947;SDS011;41113;41.882;12.530;2023-07-08T11:28:44;13.25;;;6.85;;
54947;SDS011;41113;41.882;12.530;2023-07-08T11:31:11;14.57;;;7.60;;
54947;SDS011;41113;41.882;12.530;2023-07-08T11:33:39;12.40;;;6.75;;
54947;SDS011;41113;41.882;12.530;2023-07-08T11:36:06;12.88;;;7.00;;
54947;SDS011;41113;41.882;12.530;2023-07-08T11:38:33;15.82;;;7.70;;
54947;SDS011;41113;41.882;12.530;2023-07-08T11:41:04;12.98;;;6.85;;
54947;SDS011;41113;41.882;12.530;2023-07-08T11:43:42;12.98;;;6.90;;
54947;SDS011;41113;41.882;12.530;2023-07-08T11:46:19;13.70;;;7.75;;
54947;SDS011;41113;41.882;12.530;2023-07-08T11:48:48;13.10;;;7.03;;
54947;SDS011;41113;41.882;12.530;2023-07-08T11:51:18;14.48;;;6.88;;
54947;SDS011;41113;41.882;12.530;2023-07-08T11:54:13;13.82;;;6.65;;
54947;SDS011;41113;41.882;12.530;2023-07-08T11:56:57;12.38;;;6.43;;
54947;SDS011;41113;41.882;12.530;2023-07-08T11:59:29;14.77;;;6.05;;
54947;SDS011;41113;41.882;12.530;2023-07-08T12:02:04;14.70;;;6.82;;
54947;SDS011;41113;41.882;12.530;2023-07-08T12:04:55;13.68;;;6.75;;
54947;SDS011;41113;41.882;12.530;2023-07-08T12:07:41;14.32;;;6.22;;
54947;SDS011;41113;41.882;12.530;2023-07-08T12:10:18;12.88;;;6.70;;
54947;SDS011;41113;41.882;12.530;2023-07-08T12:12:50;14.20;;;7.05;;
54947;SDS011;41113;41.882;12.530;2023-07-08T12:17:53;11.98;;;6.18;;
54947;SDS011;41113;41.882;12.530;2023-07-08T12:20:26;18.00;;;6.72;;
54947;SDS011;41113;41.882;12.530;2023-07-08T12:22:54;13.20;;;6.85;;
54947;SDS011;41113;41.882;12.530;2023-07-08T12:25:22;14.32;;;7.35;;
54947;SDS011;41113;41.882;12.530;2023-07-08T12:27:51;13.77;;;6.80;;
54947;SDS011;41113;41.882;12.530;2023-07-08T12:30:16;11.43;;;6.32;;
54947;SDS011;41113;41.882;12.530;2023-07-08T12:32:43;13.77;;;6.13;;
54947;SDS011;41113;41.882;12.530;2023-07-08T12:35:23;12.25;;;6.30;;
54947;SDS011;41113;41.882;12.530;2023-07-08T12:37:53;13.93;;;6.57;;
54947;SDS011;41113;41.882;12.530;2023-07-08T12:40:22;14.30;;;7.35;;
54947;SDS011;41113;41.882;12.530;2023-07-08T12:42:48;13.00;;;5.78;;
54947;SDS011;41113;41.882;12.530;2023-07-08T12:45:15;13.68;;;6.28;;
54947;SDS011;41113;41.882;12.530;2023-07-08T12:47:44;12.23;;;6.07;;
54947;SDS011;41113;41.882;12.530;2023-07-08T12:50:10;13.10;;;6.57;;
54947;SDS011;41113;41.882;12.530;2023-07-08T12:52:37;12.48;;;6.55;;
54947;SDS011;41113;41.882;12.530;2023-07-08T12:55:02;15.60;;;7.18;;
54947;SDS011;41113;41.882;12.530;2023-07-08T12:57:28;14.90;;;6.47;;
54947;SDS011;41113;41.882;12.530;2023-07-08T12:59:54;18.77;;;7.00;;
54947;SDS011;41113;41.882;12.530;2023-07-08T13:02:20;11.73;;;6.53;;
54947;SDS011;41113;41.882;12.530;2023-07-08T13:04:49;14.43;;;6.40;;
54947;SDS011;41113;41.882;12.530;2023-07-08T13:07:25;11.32;;;6.00;;
54947;SDS011;41113;41.882;12.530;2023-07-08T13:09:52;12.57;;;6.32;;
54947;SDS011;41113;41.882;12.530;2023-07-08T13:12:19;13.68;;;7.25;;
54947;SDS011;41113;41.882;12.530;2023-07-08T13:14:50;13.18;;;6.38;;
54947;SDS011;41113;41.882;12.530;2023-07-08T13:17:19;14.80;;;6.53;;
54947;SDS011;41113;41.882;12.530;2023-07-08T13:19:45;14.45;;;6.80;;
54947;SDS011;41113;41.882;12.530;2023-07-08T13:22:12;14.27;;;7.07;;
54947;SDS011;41113;41.882;12.530;2023-07-08T13:24:41;11.88;;;6.10;;
54947;SDS011;41113;41.882;12.530;2023-07-08T13:27:08;14.32;;;6.00;;
54947;SDS011;41113;41.882;12.530;2023-07-08T13:29:41;12.60;;;6.80;;
54947;SDS011;41113;41.882;12.530;2023-07-08T13:32:09;14.77;;;7.18;;
54947;SDS011;41113;41.882;12.530;2023-07-08T13:34:35;13.43;;;6.50;;
54947;SDS011;41113;41.882;12.530;2023-07-08T13:37:00;13.10;;;6.63;;
54947;SDS011;41113;41.882;12.530;2023-07-08T13:39:31;15.63;;;6.88;;
54947;SDS011;41113;41.882;12.530;2023-07-08T13:41:58;14.43;;;6.63;;
54947;SDS011;41113;41.882;12.530;2023-07-08T13:44:25;12.27;;;6.53;;
54947;SDS011;41113;41.882;12.530;2023-07-08T13:46:58;12.18;;;6.13;;
54947;SDS011;41113;41.882;12.530;2023-07-08T13:49:38;13.65;;;6.70;;
54947;SDS011;41113;41.882;12.530;2023-07-08T13:54:39;15.32;;;8.65;;
54947;SDS011;41113;41.882;12.530;2023-07-08T13:57:11;13.65;;;7.88;;
54947;SDS011;41113;41.882;12.530;2023-07-08T13:59:38;13.63;;;7.43;;
54947;SDS011;41113;41.882;12.530;2023-07-08T14:02:23;14.32;;;7.28;;
54947;SDS011;41113;41.882;12.530;2023-07-08T14:04:51;14.82;;;7.05;;
54947;SDS011;41113;41.882;12.530;2023-07-08T14:07:19;11.60;;;6.40;;
54947;SDS011;41113;41.882;12.530;2023-07-08T14:12:12;12.63;;;7.03;;
54947;SDS011;41113;41.882;12.530;2023-07-08T14:14:37;14.00;;;6.10;;
54947;SDS011;41113;41.882;12.530;2023-07-08T14:17:03;15.00;;;6.78;;
54947;SDS011;41113;41.882;12.530;2023-07-08T14:19:30;11.65;;;6.05;;
54947;SDS011;41113;41.882;12.530;2023-07-08T14:21:59;12.40;;;5.57;;
54947;SDS011;41113;41.882;12.530;2023-07-08T14:24:26;12.10;;;6.38;;
54947;SDS011;41113;41.882;12.530;2023-07-08T14:26:52;16.75;;;7.05;;
54947;SDS011;41113;41.882;12.530;2023-07-08T14:29:19;14.27;;;6.75;;
54947;SDS011;41113;41.882;12.530;2023-07-08T14:31:44;15.50;;;6.68;;
54947;SDS011;41113;41.882;12.530;2023-07-08T14:34:25;12.93;;;6.18;;
54947;SDS011;41113;41.882;12.530;2023-07-08T14:36:52;11.80;;;5.40;;
54947;SDS011;41113;41.882;12.530;2023-07-08T14:39:18;12.93;;;6.18;;
54947;SDS011;41113;41.882;12.530;2023-07-08T14:41:45;13.45;;;6.22;;
54947;SDS011;41113;41.882;12.530;2023-07-08T14:44:23;14.00;;;6.90;;
54947;SDS011;41113;41.882;12.530;2023-07-08T14:46:50;11.48;;;5.40;;
54947;SDS011;41113;41.882;12.530;2023-07-08T14:49:17;12.73;;;6.20;;
54947;SDS011;41113;41.882;12.530;2023-07-08T14:51:44;12.63;;;6.10;;
54947;SDS011;41113;41.882;12.530;2023-07-08T14:54:10;14.27;;;6.95;;
54947;SDS011;41113;41.882;12.530;2023-07-08T14:56:35;13.55;;;6.00;;
54947;SDS011;41113;41.882;12.530;2023-07-08T14:59:01;12.25;;;5.68;;
54947;SDS011;41113;41.882;12.530;2023-07-08T15:01:27;13.23;;;6.25;;
54947;SDS011;41113;41.882;12.530;2023-07-08T15:03:55;11.45;;;6.20;;
54947;SDS011;41113;41.882;12.530;2023-07-08T15:06:21;13.75;;;7.05;;
54947;SDS011;41113;41.882;12.530;2023-07-08T15:08:47;12.07;;;6.07;;
54947;SDS011;41113;41.882;12.530;2023-07-08T15:11:13;11.00;;;5.55;;
54947;SDS011;41113;41.882;12.530;2023-07-08T15:13:39;15.15;;;6.55;;
54947;SDS011;41113;41.882;12.530;2023-07-08T15:16:05;12.20;;;5.95;;
54947;SDS011;41113;41.882;12.530;2023-07-08T15:18:32;12.65;;;6.50;;
54947;SDS011;41113;41.882;12.530;2023-07-08T15:20:58;12.10;;;6.00;;
54947;SDS011;41113;41.882;12.530;2023-07-08T15:23:24;14.73;;;6.13;;
54947;SDS011;41113;41.882;12.530;2023-07-08T15:25:49;13.30;;;6.47;;
54947;SDS011;41113;41.882;12.530;2023-07-08T15:28:18;12.52;;;5.88;;
54947;SDS011;41113;41.882;12.530;2023-07-08T15:30:48;14.02;;;6.50;;
54947;SDS011;41113;41.882;12.530;2023-07-08T15:33:14;18.38;;;6.40;;
54947;SDS011;41113;41.882;12.530;2023-07-08T15:35:40;14.68;;;5.97;;
54947;SDS011;41113;41.882;12.530;2023-07-08T15:38:07;15.50;;;6.22;;